Time;durP1;ratioP1;P1;durP2;ratioP2;P2;SDS_P1;SDS_P2;PMS_P1;PMS_P2;Temp;Humidity;BMP_temperature;BMP_pressure;BME280_temperature;BME280_humidity;BME280_pressure;Samples;Min_cycle;Max_cycle;Signal;HPM_P1;HPM_P2
2021/10/17 00:00:12;;;;;;;8.27;4.47;;;6.00;97.80;;;;;;5066706;28;20401;-67
2021/10/17 00:02:39;;;;;;;9.80;5.40;;;6.10;97.60;;;;;;5068680;28;20050;-67
2021/10/17 00:05:05;;;;;;;6.47;4.32;;;6.10;97.30;;;;;;5068644;28;20024;-67
2021/10/17 00:07:31;;;;;;;6.45;4.35;;;6.20;97.20;;;;;;5065087;28;20024;-67
2021/10/17 00:09:57;;;;;;;7.80;5.40;;;6.20;97.00;;;;;;5068400;28;20047;-67
2021/10/17 00:12:22;;;;;;;7.03;5.20;;;6.20;97.30;;;;;;5069926;28;20195;-67
2021/10/17 00:14:48;;;;;;;7.43;6.00;;;6.20;97.20;;;;;;5069026;28;20035;-67
2021/10/17 00:17:14;;;;;;;6.63;4.95;;;6.30;97.30;;;;;;5069745;28;20086;-68
2021/10/17 00:19:39;;;;;;;6.00;5.28;;;6.30;97.20;;;;;;5080899;28;20036;-68
2021/10/17 00:22:05;;;;;;;8.60;5.25;;;6.30;97.10;;;;;;5082585;28;20033;-67
2021/10/17 00:24:31;;;;;;;8.30;4.97;;;6.40;97.20;;;;;;5067776;28;20118;-66
2021/10/17 00:26:57;;;;;;;5.78;4.95;;;6.40;97.40;;;;;;5070996;28;20117;-66
2021/10/17 00:29:22;;;;;;;7.85;6.00;;;6.40;97.40;;;;;;5070623;28;20182;-68
2021/10/17 00:31:48;;;;;;;6.10;5.05;;;6.40;97.60;;;;;;5068812;28;20044;-67
2021/10/17 00:34:14;;;;;;;6.97;4.63;;;6.40;98.00;;;;;;5070987;28;20033;-68
2021/10/17 00:36:40;;;;;;;7.05;5.20;;;6.40;97.90;;;;;;5069269;28;20028;-68
2021/10/17 00:39:06;;;;;;;7.45;5.50;;;6.40;97.80;;;;;;5066447;28;20044;-68
2021/10/17 00:41:32;;;;;;;6.43;4.97;;;6.40;98.00;;;;;;5065709;28;20033;-68
2021/10/17 00:43:59;;;;;;;6.55;5.00;;;6.50;98.10;;;;;;5066984;28;20093;-67
2021/10/17 00:46:25;;;;;;;6.53;5.27;;;6.50;98.00;;;;;;5068934;28;20465;-67
2021/10/17 00:48:51;;;;;;;5.97;4.95;;;6.50;97.80;;;;;;5072501;28;20302;-68
2021/10/17 00:51:16;;;;;;;9.15;5.13;;;6.50;97.50;;;;;;5067287;28;20036;-67
2021/10/17 00:53:43;;;;;;;6.43;4.38;;;6.50;97.50;;;;;;5071440;28;20061;-67
2021/10/17 00:56:09;;;;;;;7.30;4.80;;;6.60;97.70;;;;;;5070757;28;20036;-68
2021/10/17 00:58:35;;;;;;;8.13;5.30;;;6.60;97.50;;;;;;5071778;28;20017;-67
2021/10/17 01:01:00;;;;;;;6.07;4.90;;;6.60;97.80;;;;;;5071346;28;20094;-67
2021/10/17 01:03:27;;;;;;;6.97;5.15;;;6.60;97.60;;;;;;5071034;28;20024;-67
2021/10/17 01:05:54;;;;;;;8.43;5.18;;;6.60;97.70;;;;;;5071873;28;20032;-67
2021/10/17 01:08:20;;;;;;;7.70;4.55;;;6.60;98.00;;;;;;5070041;28;20051;-68
2021/10/17 01:10:46;;;;;;;7.45;5.18;;;6.50;97.80;;;;;;5072597;28;20036;-68
2021/10/17 01:13:17;;;;;;;6.82;5.35;;;6.50;97.80;;;;;;5071834;28;20093;-68
2021/10/17 01:15:43;;;;;;;6.10;5.35;;;6.50;97.80;;;;;;5071229;28;20024;-67
2021/10/17 01:18:09;;;;;;;7.68;4.90;;;6.50;97.80;;;;;;5065026;28;20056;-67
2021/10/17 01:20:34;;;;;;;6.40;4.93;;;6.40;98.10;;;;;;5097767;28;20032;-67
2021/10/17 01:23:01;;;;;;;5.57;4.75;;;6.50;97.80;;;;;;5068656;28;20029;-67
2021/10/17 01:25:27;;;;;;;5.45;4.63;;;6.40;97.60;;;;;;5064676;28;20027;-69
2021/10/17 01:27:53;;;;;;;6.22;4.95;;;6.40;97.30;;;;;;5070041;28;20024;-67
2021/10/17 01:30:18;;;;;;;7.70;4.88;;;6.40;97.10;;;;;;5101857;27;20028;-67
2021/10/17 01:32:44;;;;;;;8.00;4.93;;;6.40;97.50;;;;;;5069678;28;20024;-67
2021/10/17 01:35:10;;;;;;;7.75;5.68;;;6.40;97.20;;;;;;5066667;28;20035;-67
2021/10/17 01:37:36;;;;;;;7.10;5.40;;;6.30;97.20;;;;;;5066470;28;20028;-67
2021/10/17 01:40:02;;;;;;;7.18;5.57;;;6.40;97.20;;;;;;5070494;28;20039;-67
2021/10/17 01:42:28;;;;;;;8.90;5.28;;;6.30;96.90;;;;;;5070578;28;20108;-68
2021/10/17 01:44:53;;;;;;;7.35;5.45;;;6.20;96.90;;;;;;5065944;28;20037;-68
2021/10/17 01:47:19;;;;;;;8.15;5.28;;;6.20;97.10;;;;;;5067985;28;20048;-67
2021/10/17 01:49:45;;;;;;;7.47;5.03;;;6.10;97.10;;;;;;5058226;28;20074;-67
2021/10/17 01:52:10;;;;;;;7.95;5.45;;;6.10;97.30;;;;;;5058458;28;20082;-67
2021/10/17 01:54:36;;;;;;;8.65;5.50;;;6.10;96.90;;;;;;5069496;28;20028;-68
2021/10/17 01:57:02;;;;;;;5.93;4.70;;;6.10;97.20;;;;;;5079032;28;20032;-69
2021/10/17 01:59:28;;;;;;;9.40;5.43;;;6.00;96.40;;;;;;5066881;28;20109;-68
2021/10/17 02:01:53;;;;;;;7.50;4.88;;;6.00;96.30;;;;;;5068061;28;20064;-69
2021/10/17 02:04:19;;;;;;;5.40;4.75;;;6.00;96.40;;;;;;5069191;28;20051;-67
2021/10/17 02:06:45;;;;;;;5.40;4.53;;;6.00;96.30;;;;;;5067563;28;20613;-67
2021/10/17 02:09:10;;;;;;;6.63;4.72;;;6.00;96.10;;;;;;5063455;28;20021;-68
2021/10/17 02:11:36;;;;;;;8.10;4.50;;;6.00;95.90;;;;;;5063816;28;20143;-67
2021/10/17 02:14:03;;;;;;;5.10;4.13;;;6.00;95.70;;;;;;5056975;28;20534;-67
2021/10/17 02:16:28;;;;;;;3.88;3.40;;;5.80;94.50;;;;;;5053680;28;20025;-67
2021/10/17 02:18:54;;;;;;;5.00;3.78;;;5.70;94.40;;;;;;5065077;28;20043;-68
2021/10/17 02:21:20;;;;;;;4.60;4.18;;;5.70;94.70;;;;;;5069665;28;20070;-67
2021/10/17 02:23:45;;;;;;;8.10;4.53;;;5.70;94.80;;;;;;5067065;28;20162;-68
2021/10/17 02:26:11;;;;;;;5.00;4.47;;;5.70;94.70;;;;;;5069474;28;20033;-66
2021/10/17 02:28:37;;;;;;;6.63;4.95;;;5.60;94.60;;;;;;5076480;28;20020;-67
2021/10/17 02:31:02;;;;;;;5.35;4.32;;;5.60;94.50;;;;;;5069945;28;20057;-68
2021/10/17 02:33:28;;;;;;;6.20;4.60;;;5.50;94.60;;;;;;5068410;28;20024;-67
2021/10/17 02:35:54;;;;;;;5.35;4.22;;;5.50;94.50;;;;;;5068544;28;20474;-68
2021/10/17 02:38:20;;;;;;;6.43;4.70;;;5.50;94.20;;;;;;5067491;28;20020;-68
2021/10/17 02:40:45;;;;;;;6.97;5.05;;;5.40;94.10;;;;;;5067285;28;20059;-67
2021/10/17 02:43:11;;;;;;;7.72;5.30;;;5.40;94.20;;;;;;5068754;28;20052;-66
2021/10/17 02:45:37;;;;;;;7.82;5.47;;;5.40;94.30;;;;;;5077567;28;20078;-67
2021/10/17 02:48:03;;;;;;;7.15;5.22;;;5.40;94.10;;;;;;5064053;28;20028;-67
2021/10/17 02:50:28;;;;;;;6.80;5.45;;;5.30;94.30;;;;;;5063035;28;20029;-68
2021/10/17 02:52:54;;;;;;;6.60;4.60;;;5.40;94.30;;;;;;5096280;28;20388;-67
2021/10/17 02:55:19;;;;;;;7.80;4.97;;;5.30;94.30;;;;;;5062535;28;20028;-67
2021/10/17 02:57:45;;;;;;;6.63;4.90;;;5.30;94.30;;;;;;5061020;28;20435;-67
2021/10/17 03:00:11;;;;;;;6.18;5.03;;;5.30;94.20;;;;;;5062073;28;20135;-67
2021/10/17 03:02:37;;;;;;;6.15;4.75;;;5.30;94.00;;;;;;5066217;28;20501;-66
2021/10/17 03:05:04;;;;;;;7.05;4.70;;;5.30;94.00;;;;;;5086895;28;20035;-67
2021/10/17 03:07:29;;;;;;;7.97;5.35;;;5.20;93.90;;;;;;5061479;28;20405;-67
2021/10/17 03:09:55;;;;;;;6.38;4.63;;;5.20;93.90;;;;;;5062185;28;20031;-67
2021/10/17 03:12:21;;;;;;;5.70;4.53;;;5.10;93.80;;;;;;5066086;28;20028;-68
2021/10/17 03:14:46;;;;;;;5.32;3.70;;;5.00;93.70;;;;;;5061604;28;20025;-68
2021/10/17 03:17:12;;;;;;;5.55;3.55;;;5.00;93.60;;;;;;5061155;28;20060;-67
2021/10/17 03:19:37;;;;;;;3.40;3.15;;;5.00;93.70;;;;;;5063472;28;20037;-68
2021/10/17 03:22:03;;;;;;;4.65;3.38;;;4.90;93.60;;;;;;5057296;28;20171;-68
2021/10/17 03:24:29;;;;;;;4.10;3.40;;;4.80;92.90;;;;;;5062674;28;20153;-66
2021/10/17 03:26:54;;;;;;;5.57;4.32;;;4.80;93.10;;;;;;5061500;28;20587;-68
2021/10/17 03:29:20;;;;;;;4.93;4.43;;;4.80;93.80;;;;;;5064301;28;20049;-68
2021/10/17 03:31:45;;;;;;;6.13;4.82;;;4.80;94.50;;;;;;5061054;28;20033;-66
2021/10/17 03:34:11;;;;;;;6.30;4.63;;;4.80;95.00;;;;;;5059532;28;20035;-67
2021/10/17 03:36:37;;;;;;;8.05;4.55;;;4.80;95.10;;;;;;5060286;28;20477;-66
2021/10/17 03:39:04;;;;;;;8.85;4.78;;;4.80;95.40;;;;;;5059634;28;20419;-67
2021/10/17 03:41:29;;;;;;;8.10;4.78;;;4.80;95.30;;;;;;5066544;28;20536;-67
2021/10/17 03:43:55;;;;;;;5.00;4.05;;;4.80;95.20;;;;;;5066685;28;20028;-67
2021/10/17 03:46:21;;;;;;;6.50;3.80;;;4.80;95.10;;;;;;5064100;28;20428;-67
2021/10/17 03:48:47;;;;;;;4.32;3.30;;;4.70;94.40;;;;;;5058575;28;20029;-68
2021/10/17 03:51:13;;;;;;;3.30;3.00;;;4.60;93.90;;;;;;5057931;28;20096;-67
2021/10/17 03:53:38;;;;;;;4.32;3.92;;;4.60;94.10;;;;;;5086919;28;20131;-67
2021/10/17 03:56:04;;;;;;;4.35;3.60;;;4.70;93.90;;;;;;5066682;28;20483;-67
2021/10/17 03:58:30;;;;;;;4.10;3.25;;;4.70;94.00;;;;;;5063943;28;20063;-67
2021/10/17 04:00:56;;;;;;;3.80;3.50;;;4.60;93.90;;;;;;5057994;28;20056;-67
2021/10/17 04:03:21;;;;;;;3.40;3.10;;;4.60;94.60;;;;;;5064479;28;20021;-67
2021/10/17 04:05:47;;;;;;;3.80;3.35;;;4.70;94.40;;;;;;5065168;28;20035;-68
2021/10/17 04:08:13;;;;;;;3.60;3.22;;;4.70;94.60;;;;;;5062144;28;20029;-66
2021/10/17 04:10:38;;;;;;;3.28;2.95;;;4.60;94.50;;;;;;5063998;28;20111;-67
2021/10/17 04:13:04;;;;;;;5.13;3.35;;;4.60;94.80;;;;;;5063935;28;20025;-68
2021/10/17 04:15:33;;;;;;;3.22;2.70;;;4.50;94.90;;;;;;5061842;28;20032;-67
2021/10/17 04:17:58;;;;;;;3.15;2.90;;;4.50;95.00;;;;;;5056020;28;20028;-67
2021/10/17 04:20:24;;;;;;;3.25;2.97;;;4.50;95.00;;;;;;5089387;28;20025;-68
2021/10/17 04:22:49;;;;;;;2.90;2.70;;;4.40;95.30;;;;;;5059788;28;20031;-68
2021/10/17 04:25:15;;;;;;;2.90;2.50;;;4.40;95.10;;;;;;5063618;28;20025;-67
2021/10/17 04:27:41;;;;;;;3.10;2.80;;;4.40;95.10;;;;;;5060207;28;20539;-67
2021/10/17 04:30:07;;;;;;;2.92;2.72;;;4.40;95.30;;;;;;5063196;28;20044;-67
2021/10/17 04:32:32;;;;;;;3.30;3.00;;;4.40;95.00;;;;;;5068906;28;20032;-67
2021/10/17 04:34:59;;;;;;;3.40;2.90;;;4.30;94.90;;;;;;5059675;28;20029;-67
2021/10/17 04:37:27;;;;;;;3.30;2.88;;;4.30;95.00;;;;;;5058425;28;20029;-68
2021/10/17 04:39:52;;;;;;;2.93;2.63;;;4.30;95.10;;;;;;5064375;28;20034;-67
2021/10/17 04:42:18;;;;;;;3.30;3.05;;;4.20;95.10;;;;;;5066750;28;20779;-67
2021/10/17 04:44:44;;;;;;;3.17;2.88;;;4.20;95.30;;;;;;5064987;28;20013;-66
2021/10/17 04:47:09;;;;;;;3.42;3.13;;;4.30;95.60;;;;;;5060398;28;20124;-67
2021/10/17 04:49:35;;;;;;;4.38;3.63;;;4.20;95.60;;;;;;5096901;28;20107;-67
2021/10/17 04:52:00;;;;;;;3.15;2.88;;;4.30;95.60;;;;;;5066337;28;20040;-68
2021/10/17 04:54:26;;;;;;;5.43;3.80;;;4.20;95.70;;;;;;5067749;28;20027;-68
2021/10/17 04:56:52;;;;;;;3.58;3.22;;;4.20;95.90;;;;;;5068579;28;20033;-67
2021/10/17 04:59:21;;;;;;;4.38;3.80;;;4.20;95.90;;;;;;5062672;28;20044;-67
2021/10/17 05:01:47;;;;;;;4.40;3.67;;;4.20;96.00;;;;;;5081410;28;20032;-68
2021/10/17 05:04:13;;;;;;;5.22;4.43;;;4.20;96.10;;;;;;5062424;28;20021;-67
2021/10/17 05:06:39;;;;;;;5.53;4.32;;;4.30;96.20;;;;;;5061201;28;20100;-67
2021/10/17 05:09:04;;;;;;;7.82;4.63;;;4.30;96.40;;;;;;5062246;28;20473;-66
2021/10/17 05:11:30;;;;;;;6.15;4.30;;;4.40;96.60;;;;;;5065807;28;20032;-67
2021/10/17 05:13:55;;;;;;;17.48;4.47;;;4.40;96.50;;;;;;5067267;28;20071;-68
2021/10/17 05:16:21;;;;;;;6.20;4.68;;;4.50;96.50;;;;;;5066656;28;20020;-67
2021/10/17 05:18:46;;;;;;;9.55;4.80;;;4.50;96.60;;;;;;5068166;28;20603;-67
2021/10/17 05:21:12;;;;;;;9.48;4.65;;;4.50;97.00;;;;;;5065455;28;20539;-67
2021/10/17 05:23:38;;;;;;;19.52;5.78;;;4.60;97.00;;;;;;5068847;28;20074;-67
2021/10/17 05:26:04;;;;;;;12.77;4.97;;;4.60;97.40;;;;;;5065318;28;20572;-66
2021/10/17 05:28:30;;;;;;;11.32;5.70;;;4.60;97.60;;;;;;5066972;28;20017;-67
2021/10/17 05:31:00;;;;;;;6.82;4.88;;;4.70;97.80;;;;;;5060709;28;20436;-67
2021/10/17 05:33:26;;;;;;;42.70;7.40;;;4.70;97.80;;;;;;5062858;28;20013;-67
2021/10/17 05:35:52;;;;;;;7.85;5.38;;;4.70;98.20;;;;;;5064064;28;20138;-68
2021/10/17 05:38:17;;;;;;;17.42;5.22;;;4.70;98.10;;;;;;5062825;28;20107;-68
2021/10/17 05:40:43;;;;;;;16.77;5.57;;;4.70;98.20;;;;;;5061890;28;20489;-67
2021/10/17 05:43:09;;;;;;;25.15;6.00;;;4.80;98.30;;;;;;5062251;28;20028;-67
2021/10/17 05:45:35;;;;;;;11.07;6.15;;;4.80;98.20;;;;;;5060592;28;20098;-66
2021/10/17 05:48:00;;;;;;;20.05;5.95;;;4.80;98.30;;;;;;5061607;28;20082;-67
2021/10/17 05:50:26;;;;;;;10.35;6.65;;;4.80;98.30;;;;;;5065366;28;20021;-67
2021/10/17 05:52:52;;;;;;;11.27;5.82;;;4.80;98.30;;;;;;5064344;28;20052;-67
2021/10/17 05:55:18;;;;;;;6.57;5.45;;;4.80;98.30;;;;;;5066582;28;20025;-67
2021/10/17 05:57:43;;;;;;;37.55;7.13;;;4.80;98.40;;;;;;5068751;28;20036;-67
2021/10/17 06:00:09;;;;;;;12.60;5.75;;;4.80;98.50;;;;;;5060474;28;20047;-67
2021/10/17 06:02:35;;;;;;;32.38;6.90;;;4.80;98.60;;;;;;5064892;28;20051;-68
2021/10/17 06:05:01;;;;;;;27.67;7.28;;;4.70;98.40;;;;;;5066558;28;20024;-67
2021/10/17 06:07:27;;;;;;;16.83;8.50;;;4.70;98.60;;;;;;5062579;28;20107;-66
2021/10/17 06:09:52;;;;;;;32.45;9.25;;;4.70;98.80;;;;;;5064150;28;20035;-67
2021/10/17 06:12:18;;;;;;;23.20;7.05;;;4.70;98.80;;;;;;5069958;28;20025;-67
2021/10/17 06:14:44;;;;;;;21.30;5.95;;;4.70;98.90;;;;;;5056258;28;20027;-67
2021/10/17 06:17:09;;;;;;;11.60;6.97;;;4.70;98.80;;;;;;5059138;28;20020;-67
2021/10/17 06:19:35;;;;;;;12.20;6.32;;;4.70;98.80;;;;;;5064772;28;20036;-66
2021/10/17 06:22:06;;;;;;;15.35;6.57;;;4.70;98.80;;;;;;5058131;28;20134;-67
2021/10/17 06:24:32;;;;;;;36.83;10.55;;;4.80;98.70;;;;;;5063653;28;20016;-66
2021/10/17 06:26:58;;;;;;;15.98;6.78;;;4.70;98.80;;;;;;5064810;28;20087;-67
2021/10/17 06:29:25;;;;;;;56.97;10.93;;;4.70;98.80;;;;;;5066993;28;20107;-66
2021/10/17 06:31:51;;;;;;;13.13;5.68;;;4.80;99.00;;;;;;5062296;28;20029;-68
2021/10/17 06:34:16;;;;;;;10.30;6.40;;;4.80;98.90;;;;;;5060755;28;20435;-67
2021/10/17 06:36:42;;;;;;;26.52;7.70;;;4.80;99.00;;;;;;5065275;28;20021;-67
2021/10/17 06:39:08;;;;;;;39.75;7.47;;;4.80;99.00;;;;;;5063864;28;20037;-67
2021/10/17 06:41:33;;;;;;;10.23;6.63;;;4.90;99.10;;;;;;5061832;28;20036;-67
2021/10/17 06:44:00;;;;;;;42.28;8.18;;;4.90;99.60;;;;;;5065955;28;20135;-67
2021/10/17 06:46:25;;;;;;;67.13;9.98;;;4.90;99.10;;;;;;5059839;28;20039;-67
2021/10/17 06:48:51;;;;;;;14.32;6.60;;;4.90;99.10;;;;;;5067389;28;20025;-67
2021/10/17 06:51:16;;;;;;;24.83;6.93;;;4.90;99.30;;;;;;5068393;28;20036;-67
2021/10/17 06:53:42;;;;;;;12.35;5.93;;;4.90;99.10;;;;;;5058402;28;20047;-67
2021/10/17 06:56:08;;;;;;;31.58;7.25;;;5.00;99.30;;;;;;5063843;28;20493;-67
2021/10/17 06:58:34;;;;;;;19.83;7.65;;;4.90;99.10;;;;;;5063868;28;20024;-67
2021/10/17 07:00:59;;;;;;;21.55;7.88;;;5.00;99.20;;;;;;5056001;28;20099;-67
2021/10/17 07:03:25;;;;;;;62.13;9.88;;;5.00;99.10;;;;;;5063443;28;20082;-67
2021/10/17 07:05:51;;;;;;;47.58;10.90;;;5.00;99.20;;;;;;5057604;28;20538;-68
2021/10/17 07:08:16;;;;;;;15.45;7.22;;;5.00;99.20;;;;;;5090177;28;20127;-67
2021/10/17 07:10:42;;;;;;;15.80;8.27;;;5.10;99.30;;;;;;5058890;28;20106;-67
2021/10/17 07:13:08;;;;;;;27.88;7.70;;;5.10;99.40;;;;;;5061791;28;20060;-67
2021/10/17 07:15:34;;;;;;;105.85;13.35;;;5.00;99.00;;;;;;5064125;28;20048;-68
2021/10/17 07:18:00;;;;;;;41.78;8.23;;;5.00;99.10;;;;;;5062802;28;20028;-67
2021/10/17 07:20:26;;;;;;;59.80;9.25;;;5.00;99.50;;;;;;5060791;28;20031;-67
2021/10/17 07:22:52;;;;;;;28.45;7.28;;;5.00;99.50;;;;;;5060563;28;20044;-67
2021/10/17 07:25:17;;;;;;;13.10;8.07;;;5.00;99.80;;;;;;5058864;28;20166;-68
2021/10/17 07:27:43;;;;;;;27.00;7.78;;;5.00;99.70;;;;;;5078351;28;20039;-68
2021/10/17 07:30:09;;;;;;;44.53;10.13;;;5.10;99.60;;;;;;5060635;28;20170;-68
2021/10/17 07:32:35;;;;;;;41.67;8.02;;;5.10;99.80;;;;;;5059503;28;20598;-67
2021/10/17 07:35:01;;;;;;;17.67;8.13;;;5.10;99.80;;;;;;5059664;28;20135;-68
2021/10/17 07:37:26;;;;;;;39.35;9.57;;;5.20;99.90;;;;;;5059866;28;20103;-69
2021/10/17 07:39:52;;;;;;;54.47;11.18;;;5.20;99.50;;;;;;5061847;28;20040;-68
2021/10/17 07:42:17;;;;;;;27.05;8.48;;;5.10;99.30;;;;;;5061419;28;20028;-68
2021/10/17 07:44:43;;;;;;;15.05;7.68;;;5.20;99.30;;;;;;5058200;28;20040;-68
2021/10/17 07:47:09;;;;;;;14.88;8.48;;;5.20;99.60;;;;;;5062552;28;20481;-68
2021/10/17 07:49:35;;;;;;;25.98;8.98;;;5.20;99.90;;;;;;5061716;28;20036;-67
2021/10/17 07:52:00;;;;;;;10.82;8.00;;;5.20;99.70;;;;;;5062466;28;20033;-67
2021/10/17 07:54:26;;;;;;;32.22;9.75;;;5.20;99.80;;;;;;5062521;28;20032;-67
2021/10/17 07:56:52;;;;;;;32.35;9.82;;;5.20;99.90;;;;;;5060599;28;20032;-66
2021/10/17 07:59:17;;;;;;;28.17;9.02;;;5.30;99.90;;;;;;5063932;28;20045;-67
2021/10/17 08:01:43;;;;;;;17.70;12.30;;;5.30;99.90;;;;;;5061418;28;20058;-67
2021/10/17 08:04:08;;;;;;;38.92;10.85;;;5.40;99.90;;;;;;5063155;28;20572;-67
2021/10/17 08:06:34;;;;;;;14.52;9.25;;;5.40;99.90;;;;;;5058794;28;20036;-68
2021/10/17 08:09:00;;;;;;;17.00;9.32;;;5.50;99.70;;;;;;5059786;28;20028;-68
2021/10/17 08:11:26;;;;;;;32.38;10.30;;;5.50;99.60;;;;;;5057025;28;20533;-68
2021/10/17 08:13:51;;;;;;;25.65;8.73;;;5.50;99.70;;;;;;5060169;28;20043;-67
2021/10/17 08:16:17;;;;;;;15.80;9.63;;;5.60;99.70;;;;;;5064044;28;20102;-68
2021/10/17 08:18:43;;;;;;;24.08;9.98;;;5.60;99.80;;;;;;5058103;28;20047;-67
2021/10/17 08:21:09;;;;;;;29.25;10.02;;;5.60;99.70;;;;;;5058790;28;20043;-67
2021/10/17 08:23:35;;;;;;;15.80;8.75;;;5.60;99.90;;;;;;5054122;28;20025;-67
2021/10/17 08:26:01;;;;;;;18.98;9.93;;;5.70;99.90;;;;;;5060289;28;20039;-66
2021/10/17 08:28:28;;;;;;;24.25;8.98;;;5.70;99.90;;;;;;5056032;28;20049;-68
2021/10/17 08:30:55;;;;;;;16.17;9.10;;;5.70;99.90;;;;;;5061912;28;20082;-68
2021/10/17 08:33:20;;;;;;;15.63;9.27;;;5.70;99.80;;;;;;5055004;28;20110;-67
2021/10/17 08:35:46;;;;;;;26.75;9.65;;;5.80;99.80;;;;;;5057388;28;20054;-67
2021/10/17 08:38:12;;;;;;;16.65;9.05;;;5.80;99.90;;;;;;5056750;28;20029;-67
2021/10/17 08:40:39;;;;;;;31.67;10.82;;;5.80;99.80;;;;;;5057892;28;20749;-67
2021/10/17 08:43:05;;;;;;;27.13;10.48;;;5.90;99.90;;;;;;5067827;28;20581;-69
2021/10/17 08:45:31;;;;;;;24.25;10.25;;;5.90;99.90;;;;;;5059779;28;20107;-71
2021/10/17 08:47:59;;;;;;;21.58;9.90;;;5.90;99.80;;;;;;5061946;28;20437;-68
2021/10/17 08:50:25;;;;;;;53.25;20.13;;;5.90;99.90;;;;;;5061139;28;20028;-68
2021/10/17 08:52:51;;;;;;;43.22;22.95;;;6.00;99.80;;;;;;5066368;28;20028;-68
2021/10/17 08:55:16;;;;;;;20.42;11.57;;;6.00;99.90;;;;;;5067692;28;20036;-68
2021/10/17 08:57:42;;;;;;;16.33;9.38;;;6.10;99.90;;;;;;5068044;28;20035;-68
2021/10/17 09:00:29;;;;;;;28.45;12.68;;;6.10;99.90;;;;;;5064498;28;20059;-68
2021/10/17 09:02:55;;;;;;;16.52;9.07;;;6.20;99.90;;;;;;5065547;28;20036;-68
2021/10/17 09:05:43;;;;;;;17.55;10.15;;;6.20;99.90;;;;;;5067877;28;20025;-67
2021/10/17 09:08:14;;;;;;;38.38;12.95;;;6.20;99.80;;;;;;5065851;28;20021;-68
2021/10/17 09:10:40;;;;;;;32.58;11.82;;;6.20;99.90;;;;;;5071001;28;20035;-67
2021/10/17 09:13:09;;;;;;;33.92;10.00;;;6.20;99.60;;;;;;5074922;28;20134;-67
2021/10/17 09:15:35;;;;;;;31.45;10.88;;;6.20;99.90;;;;;;5065147;28;20032;-68
2021/10/17 09:18:20;;;;;;;41.95;11.10;;;6.20;99.90;;;;;;5080689;28;20080;-68
2021/10/17 09:20:46;;;;;;;74.88;29.60;;;6.20;99.90;;;;;;5055817;28;20036;-68
2021/10/17 09:23:13;;;;;;;23.60;10.65;;;6.20;99.90;;;;;;5070734;28;20028;-68
2021/10/17 09:25:39;;;;;;;41.28;12.45;;;6.20;99.90;;;;;;5068472;28;20036;-68
2021/10/17 09:28:16;;;;;;;23.55;10.43;;;6.20;99.90;;;;;;5070884;28;20043;-67
2021/10/17 09:30:42;;;;;;;21.80;11.23;;;6.20;99.90;;;;;;5070350;28;20032;-67
2021/10/17 09:33:19;;;;;;;38.28;16.60;;;6.30;99.90;;;;;;5071141;28;20040;-68
2021/10/17 09:35:44;;;;;;;38.47;19.42;;;6.30;99.80;;;;;;5070492;28;20039;-68
2021/10/17 09:38:10;;;;;;;24.98;11.23;;;6.30;99.80;;;;;;5072213;28;20028;-68
2021/10/17 09:40:38;;;;;;;49.17;20.88;;;6.40;99.60;;;;;;5071578;28;20485;-69
2021/10/17 09:43:11;;;;;;;31.10;13.32;;;6.40;99.80;;;;;;5070295;28;20033;-69
2021/10/17 09:45:37;;;;;;;62.78;13.52;;;6.40;99.90;;;;;;5069412;28;20032;-69
2021/10/17 09:48:04;;;;;;;40.17;20.90;;;6.40;99.90;;;;;;5066955;28;20098;-68
2021/10/17 09:50:30;;;;;;;47.03;19.13;;;6.40;99.90;;;;;;5063657;28;20028;-67
2021/10/17 09:53:08;;;;;;;24.88;11.85;;;6.40;99.90;;;;;;5069255;28;20473;-67
2021/10/17 09:55:34;;;;;;;37.70;12.63;;;6.50;99.90;;;;;;5069475;28;20028;-67
2021/10/17 09:58:03;;;;;;;30.73;13.00;;;6.40;99.90;;;;;;5070890;28;20024;-67
2021/10/17 10:00:33;;;;;;;71.88;35.08;;;6.40;99.90;;;;;;5061322;28;20051;-67
2021/10/17 10:03:00;;;;;;;43.72;21.55;;;6.50;99.90;;;;;;5069765;28;20151;-67
2021/10/17 10:05:28;;;;;;;28.40;16.15;;;6.50;99.90;;;;;;5070266;28;20390;-67
2021/10/17 10:08:01;;;;;;;20.20;12.13;;;6.60;99.90;;;;;;5066197;28;20025;-69
2021/10/17 10:10:31;;;;;;;38.58;14.68;;;6.70;99.90;;;;;;5062173;28;20553;-68
2021/10/17 10:13:01;;;;;;;31.17;12.10;;;6.70;99.90;;;;;;5070280;28;20024;-67
2021/10/17 10:15:27;;;;;;;20.88;11.50;;;6.70;99.90;;;;;;5067214;28;20016;-68
2021/10/17 10:17:54;;;;;;;27.38;13.65;;;6.80;99.90;;;;;;5065114;28;20025;-67
2021/10/17 10:20:24;;;;;;;45.33;13.77;;;6.80;99.90;;;;;;5067949;28;20057;-67
2021/10/17 10:22:52;;;;;;;344.85;280.35;;;6.80;99.90;;;;;;5070493;28;20095;-70
2021/10/17 10:25:19;;;;;;;27.50;18.40;;;6.80;99.90;;;;;;5067021;28;20052;-70
2021/10/17 10:27:46;;;;;;;24.20;12.73;;;6.90;99.90;;;;;;5071620;28;20050;-70
2021/10/17 10:30:27;;;;;;;34.88;13.25;;;7.00;99.90;;;;;;5072693;28;20028;-70
2021/10/17 10:33:13;;;;;;;22.10;12.63;;;7.00;99.90;;;;;;5070884;28;20048;-70
2021/10/17 10:36:09;;;;;;;24.92;12.73;;;7.00;99.90;;;;;;5071790;28;20089;-70
2021/10/17 10:38:53;;;;;;;24.45;13.75;;;7.10;99.90;;;;;;5071997;28;20098;-70
2021/10/17 10:41:21;;;;;;;24.08;12.82;;;7.10;99.90;;;;;;5067476;28;20024;-70
2021/10/17 10:43:47;;;;;;;20.92;11.75;;;7.20;99.70;;;;;;5078551;28;20021;-70
2021/10/17 10:46:29;;;;;;;22.40;11.60;;;7.20;99.50;;;;;;5070656;28;20039;-70
2021/10/17 10:48:55;;;;;;;23.65;12.40;;;7.20;99.20;;;;;;5061367;28;20024;-70
2021/10/17 10:51:39;;;;;;;26.13;13.48;;;7.20;99.30;;;;;;5069760;28;20025;-70
2021/10/17 10:54:07;;;;;;;23.83;13.98;;;7.20;99.30;;;;;;5066125;28;20036;-69
2021/10/17 10:56:46;;;;;;;26.38;12.02;;;7.30;99.20;;;;;;5070196;28;20023;-69
2021/10/17 10:59:18;;;;;;;25.27;11.88;;;7.30;99.70;;;;;;5064924;28;20064;-70
2021/10/17 11:01:55;;;;;;;27.02;12.00;;;7.40;99.60;;;;;;5067961;28;20036;-70
2021/10/17 11:04:42;;;;;;;26.13;13.25;;;7.40;99.60;;;;;;5069209;28;20028;-71
2021/10/17 11:07:19;;;;;;;26.45;12.98;;;7.50;99.90;;;;;;5070254;28;20568;-70
2021/10/17 11:09:47;;;;;;;24.88;11.90;;;7.50;99.90;;;;;;5071600;28;20025;-70
2021/10/17 11:12:41;;;;;;;27.98;13.27;;;7.50;99.90;;;;;;5067438;28;20461;-69
2021/10/17 11:15:12;;;;;;;24.58;13.52;;;7.60;99.60;;;;;;5068559;28;20393;-72
2021/10/17 11:17:38;;;;;;;26.73;13.23;;;7.60;99.40;;;;;;5068606;28;20036;-71
2021/10/17 11:20:05;;;;;;;26.48;12.43;;;7.70;99.40;;;;;;5069825;28;20859;-70
2021/10/17 11:22:35;;;;;;;25.65;12.75;;;7.80;99.80;;;;;;5054592;28;20416;-71
2021/10/17 11:25:01;;;;;;;26.65;13.15;;;7.80;99.80;;;;;;5069161;28;20104;-71
2021/10/17 11:27:27;;;;;;;23.95;12.82;;;7.90;99.80;;;;;;5069562;28;20099;-71
2021/10/17 11:29:52;;;;;;;26.00;12.63;;;8.00;99.90;;;;;;5065213;28;20043;-71
2021/10/17 11:32:18;;;;;;;25.63;13.00;;;8.00;99.90;;;;;;5059431;28;20041;-71
2021/10/17 11:35:04;;;;;;;28.30;13.82;;;8.00;99.70;;;;;;5069335;28;20029;-70
2021/10/17 11:37:31;;;;;;;25.27;12.07;;;8.10;99.60;;;;;;5069588;28;20107;-71
2021/10/17 11:40:10;;;;;;;25.05;12.82;;;8.20;99.50;;;;;;5067683;28;20137;-71
2021/10/17 11:42:48;;;;;;;26.88;13.43;;;8.20;99.40;;;;;;5068039;28;20020;-71
2021/10/17 11:45:25;;;;;;;25.70;12.70;;;8.20;99.40;;;;;;5068364;28;20618;-71
2021/10/17 11:47:53;;;;;;;24.50;12.75;;;8.30;99.40;;;;;;5056507;28;20203;-70
2021/10/17 11:50:21;;;;;;;24.90;12.93;;;8.30;99.70;;;;;;5068439;28;20078;-70
2021/10/17 11:53:00;;;;;;;27.52;15.95;;;8.30;99.70;;;;;;5066504;28;20028;-70
2021/10/17 11:55:31;;;;;;;29.77;13.88;;;8.40;99.40;;;;;;5067120;28;20029;-70
2021/10/17 11:57:57;;;;;;;28.63;15.38;;;8.40;99.20;;;;;;5070727;28;20106;-70
2021/10/17 12:00:31;;;;;;;27.63;13.80;;;8.50;99.20;;;;;;5070159;28;20497;-70
2021/10/17 12:02:57;;;;;;;31.20;15.20;;;8.50;99.20;;;;;;5064225;28;20070;-70
2021/10/17 12:05:26;;;;;;;26.48;13.95;;;8.60;99.80;;;;;;5065252;28;20036;-70
2021/10/17 12:08:01;;;;;;;30.80;14.57;;;8.60;99.80;;;;;;5069275;28;20496;-70
2021/10/17 12:10:29;;;;;;;27.33;14.55;;;8.60;99.60;;;;;;5080565;28;20093;-71
2021/10/17 12:13:03;;;;;;;27.65;13.55;;;8.70;99.80;;;;;;5065058;28;20027;-70
2021/10/17 12:15:31;;;;;;;27.48;14.00;;;8.70;99.70;;;;;;5070794;28;20036;-70
2021/10/17 12:18:04;;;;;;;27.38;14.02;;;8.70;99.50;;;;;;5067181;28;20024;-67
2021/10/17 12:20:32;;;;;;;26.85;13.95;;;8.70;99.30;;;;;;5063512;28;20025;-67
2021/10/17 12:23:00;;;;;;;27.57;14.47;;;8.80;99.40;;;;;;5071612;28;20562;-68
2021/10/17 12:25:27;;;;;;;30.80;15.38;;;8.90;99.80;;;;;;5064255;28;20727;-66
2021/10/17 12:27:53;;;;;;;26.48;14.32;;;8.80;99.50;;;;;;5066635;28;20028;-67
2021/10/17 12:30:21;;;;;;;31.63;15.15;;;8.80;99.30;;;;;;5067053;28;20040;-68
2021/10/17 12:32:49;;;;;;;28.42;14.57;;;8.80;99.50;;;;;;5066893;28;20028;-68
2021/10/17 12:35:20;;;;;;;;;;;8.90;99.50;;;;;;5067915;28;20397;-68
2021/10/17 12:37:46;;;;;;;25.10;13.18;;;9.00;99.20;;;;;;5056344;28;19911;-68
2021/10/17 12:40:12;;;;;;;27.02;15.02;;;9.00;98.80;;;;;;5067412;28;20116;-67
2021/10/17 12:42:59;;;;;;;28.70;13.80;;;9.00;99.20;;;;;;5067268;28;20556;-68
2021/10/17 12:45:29;;;;;;;28.92;13.80;;;9.20;99.90;;;;;;5071095;28;20020;-67
2021/10/17 12:47:56;;;;;;;26.52;14.23;;;9.30;99.30;;;;;;5102270;28;20016;-67